createdAt,value
2018-12-17T00:00:51.352Z,97687.58
2018-12-17T00:03:20.740Z,97684.03
2018-12-17T00:05:50.496Z,97672.73
2018-12-17T00:08:19.805Z,97688.78
2018-12-17T00:10:49.086Z,97684.53
2018-12-17T00:13:18.369Z,97688.14
2018-12-17T00:15:47.956Z,97686.05
2018-12-17T00:18:17.524Z,97694.33
2018-12-17T00:20:47.103Z,97698.87
2018-12-17T00:23:16.451Z,97694.25
2018-12-17T00:25:45.742Z,97700.37
2018-12-17T00:28:15.145Z,97701.47
2018-12-17T00:30:44.515Z,97702.89
2018-12-17T00:33:13.942Z,97700.97
2018-12-17T00:35:43.307Z,97700.76
2018-12-17T00:38:13.563Z,97702.72
2018-12-17T00:40:42.846Z,97701.63
2018-12-17T00:43:12.109Z,97703.27
2018-12-17T00:45:41.637Z,97697.92
2018-12-17T00:48:11.002Z,97697.70
2018-12-17T00:50:40.348Z,97689.45
2018-12-17T00:53:09.755Z,97699.86
2018-12-17T00:55:39.098Z,97705.00
2018-12-17T00:58:14.969Z,97693.64
2018-12-17T01:00:40.111Z,97702.03
2018-12-17T01:03:09.429Z,97703.42
2018-12-17T01:05:38.836Z,97700.03
2018-12-17T01:08:08.116Z,97697.79
2018-12-17T01:10:37.418Z,97698.66
2018-12-17T01:13:06.789Z,97699.14
2018-12-17T01:15:36.230Z,97701.94
2018-12-17T01:18:05.832Z,97707.02
2018-12-17T01:20:35.179Z,97712.43
2018-12-17T01:23:04.536Z,97732.16
2018-12-17T01:25:34.021Z,97731.44
2018-12-17T01:28:03.528Z,97729.25
2018-12-17T01:30:34.043Z,97727.18
2018-12-17T01:33:03.420Z,97729.44
2018-12-17T01:35:32.708Z,97729.24
2018-12-17T01:38:01.969Z,97732.58
2018-12-17T01:40:31.238Z,97739.41
2018-12-17T01:43:00.689Z,97744.73
2018-12-17T01:45:29.976Z,97749.02
2018-12-17T01:47:59.405Z,97750.45
2018-12-17T01:50:28.780Z,97754.92
2018-12-17T01:52:58.180Z,97759.63
2018-12-17T01:55:27.506Z,97760.73
2018-12-17T01:57:56.783Z,97761.59
2018-12-17T02:00:26.127Z,97762.57
2018-12-17T02:02:55.459Z,97763.02
2018-12-17T02:05:24.860Z,97761.55
2018-12-17T02:07:54.215Z,97767.42
2018-12-17T02:10:23.681Z,97765.08
2018-12-17T02:12:53.013Z,97762.17
2018-12-17T02:15:22.760Z,97776.10
2018-12-17T02:17:52.109Z,97767.70
2018-12-17T02:20:21.552Z,97773.09
2018-12-17T02:22:50.841Z,97782.73
2018-12-17T02:25:20.115Z,97781.16
2018-12-17T02:27:49.414Z,97785.19
2018-12-17T02:30:18.884Z,97780.45
2018-12-17T02:32:48.252Z,97778.98
2018-12-17T02:35:17.716Z,97781.35
2018-12-17T02:37:47.029Z,97781.52
2018-12-17T02:40:16.409Z,97780.70
2018-12-17T02:42:45.732Z,97786.73
2018-12-17T02:45:15.125Z,97787.39
2018-12-17T02:47:47.855Z,97784.16
2018-12-17T02:50:17.215Z,97788.41
2018-12-17T02:52:46.527Z,97789.41
2018-12-17T02:55:15.889Z,97795.48
2018-12-17T02:57:45.210Z,97793.22
2018-12-17T03:00:14.740Z,97795.86
2018-12-17T03:02:44.193Z,97800.27
2018-12-17T03:05:13.711Z,97804.30
2018-12-17T03:07:43.038Z,97802.41
2018-12-17T03:10:13.003Z,97805.19
2018-12-17T03:12:42.300Z,97805.92
2018-12-17T03:15:11.846Z,97813.42
2018-12-17T03:17:42.100Z,97803.55
2018-12-17T03:20:11.588Z,97811.15
2018-12-17T03:22:41.066Z,97816.43
2018-12-17T03:25:10.725Z,97819.88
2018-12-17T03:27:40.054Z,97822.27
2018-12-17T03:30:09.708Z,97822.94
2018-12-17T03:32:39.101Z,97823.67
2018-12-17T03:35:08.722Z,97827.11
2018-12-17T03:37:38.142Z,97828.91
2018-12-17T03:40:07.725Z,97832.91
2018-12-17T03:42:37.169Z,97835.33
2018-12-17T03:45:06.778Z,97825.39
2018-12-17T03:47:36.169Z,97828.00
2018-12-17T03:50:06.746Z,97834.36
2018-12-17T03:52:36.110Z,97836.58
2018-12-17T03:55:05.966Z,97839.48
2018-12-17T03:57:35.403Z,97842.23
2018-12-17T04:00:06.372Z,97846.31
2018-12-17T04:02:35.644Z,97846.02
2018-12-17T04:05:05.493Z,97847.30
2018-12-17T04:07:34.870Z,97845.33
2018-12-17T04:10:05.020Z,97844.69
2018-12-17T04:12:34.431Z,97839.13
2018-12-17T04:15:04.159Z,97850.64
2018-12-17T04:17:33.816Z,97851.31
2018-12-17T04:20:03.248Z,97856.38
2018-12-17T04:22:32.539Z,97859.15
2018-12-17T04:25:01.876Z,97863.11
2018-12-17T04:27:31.241Z,97859.62
2018-12-17T04:30:00.646Z,97867.85
2018-12-17T04:32:29.994Z,97868.69
2018-12-17T04:34:59.340Z,97873.91
2018-12-17T04:37:28.696Z,97868.91
2018-12-17T04:39:58.197Z,97873.48
2018-12-17T04:42:27.503Z,97875.77
2018-12-17T04:44:56.841Z,97879.00
2018-12-17T04:47:26.118Z,97879.38
2018-12-17T04:49:55.424Z,97886.86
2018-12-17T04:52:24.777Z,97895.06
2018-12-17T04:54:54.192Z,97898.82
2018-12-17T04:57:23.498Z,97907.35
2018-12-17T04:59:52.874Z,97905.99
2018-12-17T05:02:22.224Z,97909.44
2018-12-17T05:04:51.525Z,97922.66
2018-12-17T05:07:20.851Z,97924.80
2018-12-17T05:09:50.107Z,97924.69
2018-12-17T05:12:19.450Z,97927.11
2018-12-17T05:14:48.829Z,97932.50
2018-12-17T05:17:18.416Z,97935.61
2018-12-17T05:19:47.729Z,97940.16
2018-12-17T05:22:17.066Z,97950.09
2018-12-17T05:24:46.339Z,97950.59
2018-12-17T05:27:15.778Z,97959.07
2018-12-17T05:29:45.081Z,97968.86
2018-12-17T05:32:14.399Z,97965.07
2018-12-17T05:34:43.800Z,97964.95
2018-12-17T05:37:13.129Z,97963.78
2018-12-17T05:39:42.451Z,97965.23
2018-12-17T05:42:11.746Z,97976.36
2018-12-17T05:44:41.197Z,97978.29
2018-12-17T05:47:10.534Z,97977.80
2018-12-17T05:49:39.819Z,97979.27
2018-12-17T05:52:09.118Z,97987.26
2018-12-17T05:54:38.489Z,97995.52
2018-12-17T05:57:07.929Z,98000.42
2018-12-17T05:59:37.287Z,97997.77
2018-12-17T06:02:06.836Z,98000.40
2018-12-17T06:04:36.274Z,97998.89
2018-12-17T06:07:05.852Z,97999.67
2018-12-17T06:09:35.469Z,97999.29
2018-12-17T06:12:04.808Z,98002.52
2018-12-17T06:14:34.142Z,98005.45
2018-12-17T06:17:03.511Z,98005.42
2018-12-17T06:19:32.783Z,98008.18
2018-12-17T06:22:02.186Z,98015.87
2018-12-17T06:24:31.462Z,98025.05
2018-12-17T06:27:00.818Z,98034.69
2018-12-17T06:29:35.509Z,98031.25
2018-12-17T06:32:01.565Z,98046.95
2018-12-17T06:34:30.977Z,98033.25
2018-12-17T06:37:00.358Z,98033.44
2018-12-17T06:39:29.677Z,98053.69
2018-12-17T06:41:59.069Z,98048.97
2018-12-17T06:44:28.336Z,98047.00
2018-12-17T06:46:57.687Z,98042.75
2018-12-17T06:49:26.966Z,98037.38
2018-12-17T06:51:56.471Z,98041.16
2018-12-17T06:54:26.081Z,98038.89
2018-12-17T06:56:55.375Z,98047.42
2018-12-17T06:59:24.675Z,98061.48
2018-12-17T07:01:54.076Z,98075.89
2018-12-17T07:04:23.478Z,98089.58
2018-12-17T07:06:52.864Z,98092.05
2018-12-17T07:09:22.512Z,98099.42
2018-12-17T07:11:51.872Z,98107.89
2018-12-17T07:14:21.233Z,98100.08
2018-12-17T07:16:50.594Z,98104.18
2018-12-17T07:19:19.909Z,98103.52
2018-12-17T07:21:49.466Z,98099.73
2018-12-17T07:24:18.784Z,98102.03
2018-12-17T07:26:48.151Z,98096.80
2018-12-17T07:29:17.425Z,98108.86
2018-12-17T07:31:46.778Z,98111.82
2018-12-17T07:34:16.270Z,98118.00
2018-12-17T07:36:45.724Z,98114.91
2018-12-17T07:39:15.240Z,98125.20
2018-12-17T07:41:44.542Z,98132.38
2018-12-17T07:44:13.841Z,98128.45
2018-12-17T07:46:43.167Z,98135.59
2018-12-17T07:49:12.459Z,98127.27
2018-12-17T07:51:41.871Z,98139.69
2018-12-17T07:54:11.170Z,98144.09
2018-12-17T07:56:40.551Z,98147.70
2018-12-17T07:59:10.088Z,98154.84
2018-12-17T08:01:39.441Z,98156.80
2018-12-17T08:04:09.316Z,98155.97
2018-12-17T08:06:38.745Z,98161.55
2018-12-17T08:09:08.805Z,98167.60
2018-12-17T08:11:38.260Z,98164.47
2018-12-17T08:14:07.663Z,98159.74
2018-12-17T08:16:37.136Z,98170.48
2018-12-17T08:19:06.477Z,98172.92
2018-12-17T08:21:35.724Z,98182.75
2018-12-17T08:24:05.110Z,98185.65
2018-12-17T08:26:34.471Z,98196.75
2018-12-17T08:29:03.880Z,98199.49
2018-12-17T08:31:33.172Z,98208.95
2018-12-17T08:34:02.499Z,98208.27
2018-12-17T08:36:31.800Z,98213.58
2018-12-17T08:39:01.217Z,98206.36
2018-12-17T08:41:30.541Z,98219.91
2018-12-17T08:44:00.077Z,98217.64
2018-12-17T08:46:29.380Z,98224.63
2018-12-17T08:48:58.736Z,98233.09
2018-12-17T08:51:28.144Z,98224.51
2018-12-17T08:53:57.621Z,98236.52
2018-12-17T08:56:26.883Z,98220.79
2018-12-17T08:58:56.213Z,98226.28
2018-12-17T09:01:25.666Z,98233.11
2018-12-17T09:03:55.537Z,98241.55
2018-12-17T09:06:24.970Z,98239.84
2018-12-17T09:08:54.431Z,98247.05
2018-12-17T09:11:23.864Z,98251.31
2018-12-17T09:13:53.228Z,98252.08
2018-12-17T09:16:22.647Z,98249.62
2018-12-17T09:18:52.012Z,98252.30
2018-12-17T09:21:21.356Z,98256.20
2018-12-17T09:23:50.793Z,98249.41
2018-12-17T09:26:20.124Z,98259.45
2018-12-17T09:28:49.710Z,98270.36
2018-12-17T09:31:19.096Z,98262.41
2018-12-17T09:33:48.452Z,98270.97
2018-12-17T09:36:17.787Z,98275.59
2018-12-17T09:38:47.068Z,98273.45
2018-12-17T09:41:16.392Z,98273.41
2018-12-17T09:43:45.858Z,98268.38
2018-12-17T09:46:15.211Z,98268.19
2018-12-17T09:48:44.625Z,98279.73
2018-12-17T09:51:19.484Z,98279.09
2018-12-17T09:53:45.427Z,98276.20
2018-12-17T09:56:14.923Z,98268.70
2018-12-17T09:58:44.411Z,98277.06
2018-12-17T10:01:13.739Z,98281.33
2018-12-17T10:03:43.114Z,98267.28
2018-12-17T10:06:12.572Z,98275.72
2018-12-17T10:08:41.976Z,98280.77
2018-12-17T10:11:11.281Z,98283.61
2018-12-17T10:13:40.702Z,98281.44
2018-12-17T10:17:13.595Z,98287.42
2018-12-17T10:19:42.940Z,98277.34
2018-12-17T10:22:12.397Z,98280.37
2018-12-17T10:24:41.676Z,98271.02
2018-12-17T10:27:10.941Z,98268.78
2018-12-17T10:29:40.335Z,98266.14
2018-12-17T10:32:09.735Z,98269.58
2018-12-17T10:34:39.181Z,98258.20
2018-12-17T10:37:08.535Z,98263.80
2018-12-17T10:39:37.920Z,98257.84
2018-12-17T10:42:07.255Z,98260.03
2018-12-17T10:44:36.639Z,98259.34
2018-12-17T10:47:06.048Z,98262.73
2018-12-17T10:49:35.381Z,98272.31
2018-12-17T10:52:04.785Z,98273.63
2018-12-17T10:54:34.244Z,98277.98
2018-12-17T10:57:03.673Z,98272.42
2018-12-17T10:59:32.972Z,98272.67
2018-12-17T11:05:00.727Z,98279.33
2018-12-17T11:07:30.110Z,98267.73
2018-12-17T11:09:59.504Z,98269.14
2018-12-17T11:12:28.827Z,98271.41
2018-12-17T11:14:58.203Z,98268.84
2018-12-17T11:17:27.503Z,98268.95
2018-12-17T11:19:56.820Z,98266.94
2018-12-17T11:22:26.179Z,98267.95
2018-12-17T11:24:55.595Z,98271.73
2018-12-17T11:27:24.876Z,98271.92
2018-12-17T11:29:54.322Z,98261.70
2018-12-17T11:32:23.640Z,98264.51
2018-12-17T11:34:53.097Z,98266.32
2018-12-17T11:37:22.488Z,98262.44
2018-12-17T11:39:51.831Z,98263.98
2018-12-17T11:42:21.191Z,98261.83
2018-12-17T11:44:50.589Z,98250.48
2018-12-17T11:47:19.999Z,98263.11
2018-12-17T11:49:49.294Z,98259.70
2018-12-17T11:52:18.596Z,98259.65
2018-12-17T11:54:47.940Z,98262.86
2018-12-17T11:57:49.347Z,98267.59
2018-12-17T12:00:18.757Z,98265.94
2018-12-17T12:02:48.171Z,98263.02
2018-12-17T12:05:17.513Z,98272.62
2018-12-17T12:07:46.840Z,98270.66
2018-12-17T12:10:16.236Z,98282.12
2018-12-17T12:12:45.662Z,98271.42
2018-12-17T12:15:14.979Z,98275.59
2018-12-17T12:17:44.296Z,98274.39
2018-12-17T12:20:13.738Z,98282.12
2018-12-17T12:22:43.074Z,98279.72
2018-12-17T12:25:12.575Z,98279.59
2018-12-17T12:27:41.896Z,98275.72
2018-12-17T12:30:12.025Z,98282.22
2018-12-17T12:32:41.337Z,98286.89
2018-12-17T12:35:12.690Z,98287.68
2018-12-17T12:37:41.982Z,98289.34
2018-12-17T12:40:11.637Z,98293.47
2018-12-17T12:42:40.971Z,98289.11
2018-12-17T12:45:10.449Z,98297.48
2018-12-17T12:47:39.799Z,98296.87
2018-12-17T12:50:10.401Z,98303.06
2018-12-17T12:52:39.849Z,98306.02
2018-12-17T12:55:09.599Z,98307.32
2018-12-17T12:57:39.016Z,98308.55
2018-12-17T13:00:13.265Z,98315.23
2018-12-17T13:02:42.551Z,98332.53
2018-12-17T13:05:11.966Z,98327.44
2018-12-17T13:07:41.365Z,98334.25
2018-12-17T13:10:13.310Z,98330.50
2018-12-17T13:12:42.731Z,98338.23
2018-12-17T13:15:12.312Z,98341.60
2018-12-17T13:17:41.660Z,98344.86
2018-12-17T13:20:11.488Z,98350.88
2018-12-17T13:22:40.785Z,98352.81
2018-12-17T13:27:57.262Z,98363.98
2018-12-17T13:30:26.646Z,98366.53
2018-12-17T13:32:55.988Z,98366.95
2018-12-17T13:35:25.281Z,98365.82
2018-12-17T13:37:54.636Z,98369.89
2018-12-17T13:40:24.194Z,98369.27
2018-12-17T13:42:53.699Z,98368.27
2018-12-17T13:45:23.107Z,98372.74
2018-12-17T13:47:52.447Z,98376.08
2018-12-17T13:50:30.262Z,98383.59
2018-12-17T13:53:03.662Z,98381.06
2018-12-17T13:55:32.997Z,98392.41
2018-12-17T13:58:02.377Z,98399.67
2018-12-17T14:00:31.799Z,98404.41
2018-12-17T14:03:01.114Z,98403.19
2018-12-17T14:05:30.501Z,98414.56
2018-12-17T14:07:59.882Z,98412.74
2018-12-17T14:10:34.658Z,98412.20
2018-12-17T14:13:04.121Z,98409.27
2018-12-17T14:15:38.883Z,98416.06
2018-12-17T14:18:12.259Z,98421.75
2018-12-17T14:20:46.856Z,98431.13
2018-12-17T14:23:16.232Z,98435.88
2018-12-17T14:25:45.513Z,98444.13
2018-12-17T14:28:14.992Z,98449.30
2018-12-17T14:30:44.269Z,98464.25
2018-12-17T14:33:13.638Z,98466.70
2018-12-17T14:35:46.962Z,98476.45
2018-12-17T14:38:16.261Z,98484.16
2018-12-17T14:40:45.555Z,98488.16
2018-12-17T14:43:14.884Z,98491.70
2018-12-17T14:45:44.311Z,98488.58
2018-12-17T14:48:13.670Z,98496.17
2018-12-17T14:50:42.911Z,98511.84
2018-12-17T14:53:12.249Z,98500.86
2018-12-17T14:55:41.553Z,98506.25
2018-12-17T14:58:10.915Z,98517.82
2018-12-17T15:00:40.320Z,98521.77
2018-12-17T15:03:09.697Z,98529.02
2018-12-17T15:05:38.977Z,98526.98
2018-12-17T15:08:08.331Z,98535.57
2018-12-17T15:10:37.674Z,98542.66
2018-12-17T15:13:07.039Z,98538.59
2018-12-17T15:15:36.721Z,98548.52
2018-12-17T15:18:06.137Z,98548.57
2018-12-17T15:20:35.448Z,98561.25
2018-12-17T15:23:04.724Z,98561.37
2018-12-17T15:25:34.101Z,98568.83
2018-12-17T15:28:03.479Z,98557.66
2018-12-17T15:30:32.980Z,98565.50
2018-12-17T15:33:02.331Z,98570.73
2018-12-17T15:35:31.672Z,98574.97
2018-12-17T15:38:01.001Z,98576.01
2018-12-17T15:40:30.337Z,98585.22
2018-12-17T15:42:59.664Z,98586.44
2018-12-17T15:45:28.994Z,98589.44
2018-12-17T15:47:58.276Z,98590.83
2018-12-17T15:50:27.608Z,98589.98
2018-12-17T15:52:57.082Z,98591.87
2018-12-17T15:55:26.396Z,98590.08
2018-12-17T15:57:55.707Z,98588.12
2018-12-17T16:00:25.253Z,98586.80
2018-12-17T16:02:54.569Z,98590.94
2018-12-17T16:05:23.920Z,98589.80
2018-12-17T16:07:53.253Z,98588.12
2018-12-17T16:10:22.607Z,98594.75
2018-12-17T16:12:51.920Z,98585.91
2018-12-17T16:15:21.560Z,98584.27
2018-12-17T16:17:52.962Z,98579.98
2018-12-17T16:20:23.974Z,98586.20
2018-12-17T16:22:54.709Z,98590.80
2018-12-17T16:25:24.162Z,98599.39
2018-12-17T16:27:53.456Z,98601.74
2018-12-17T16:30:22.828Z,98601.35
2018-12-17T16:32:52.190Z,98598.46
2018-12-17T16:35:21.584Z,98605.84
2018-12-17T16:37:50.827Z,98601.31
2018-12-17T16:40:20.225Z,98606.59
2018-12-17T16:42:49.544Z,98607.66
2018-12-17T16:45:18.919Z,98597.64
2018-12-17T16:47:48.272Z,98617.16
2018-12-17T16:50:17.692Z,98617.22
2018-12-17T16:52:47.215Z,98619.05
2018-12-17T16:55:16.681Z,98633.81
2018-12-17T16:57:46.042Z,98637.45
2018-12-17T17:00:15.487Z,98643.34
2018-12-17T17:02:44.848Z,98646.48
2018-12-17T17:05:14.374Z,98643.16
2018-12-17T17:07:43.712Z,98645.20
2018-12-17T17:10:12.925Z,98645.98
2018-12-17T17:12:42.416Z,98647.52
2018-12-17T17:15:12.919Z,98649.41
2018-12-17T17:17:43.594Z,98660.72
2018-12-17T17:20:13.104Z,98657.52
2018-12-17T17:22:42.524Z,98664.25
2018-12-17T17:25:11.913Z,98671.06
2018-12-17T17:27:41.312Z,98673.06
2018-12-17T17:30:11.094Z,98676.41
2018-12-17T17:32:40.483Z,98674.20
2018-12-17T17:35:10.572Z,98681.87
2018-12-17T17:37:39.952Z,98687.25
2018-12-17T17:40:09.565Z,98693.25
2018-12-17T17:42:38.929Z,98687.21
2018-12-17T17:45:08.640Z,98685.78
2018-12-17T17:47:37.999Z,98683.93
2018-12-17T17:50:07.707Z,98684.45
2018-12-17T17:52:37.083Z,98686.08
2018-12-17T17:55:06.940Z,98687.84
2018-12-17T17:57:36.214Z,98685.77
2018-12-17T18:00:06.442Z,98695.83
2018-12-17T18:02:35.781Z,98706.11
2018-12-17T18:05:06.075Z,98694.45
2018-12-17T18:07:35.516Z,98701.45
2018-12-17T18:10:07.190Z,98708.20
2018-12-17T18:12:36.520Z,98712.54
2018-12-17T18:15:06.759Z,98715.97
2018-12-17T18:17:36.087Z,98718.44
2018-12-17T18:20:06.293Z,98719.38
2018-12-17T18:22:35.756Z,98730.57
2018-12-17T18:25:05.758Z,98758.02
2018-12-17T18:27:35.114Z,98741.30
2018-12-17T18:30:05.336Z,98745.31
2018-12-17T18:32:34.623Z,98751.91
2018-12-17T18:35:04.121Z,98758.57
2018-12-17T18:37:33.371Z,98748.83
2018-12-17T18:40:02.754Z,98754.34
2018-12-17T18:42:32.036Z,98754.10
2018-12-17T18:45:01.483Z,98765.77
2018-12-17T18:47:30.739Z,98762.52
2018-12-17T18:50:00.091Z,98767.91
2018-12-17T18:52:29.694Z,98784.22
2018-12-17T18:54:59.056Z,98791.53
2018-12-17T18:57:28.353Z,98795.98
2018-12-17T18:59:57.692Z,98794.27
2018-12-17T19:02:33.067Z,98800.09
2018-12-17T19:04:59.342Z,98804.59
2018-12-17T19:07:28.648Z,98800.86
2018-12-17T19:09:58.178Z,98806.14
2018-12-17T19:12:27.466Z,98807.13
2018-12-17T19:14:56.823Z,98804.69
2018-12-17T19:17:26.247Z,98808.65
2018-12-17T19:19:55.621Z,98814.30
2018-12-17T19:22:25.048Z,98829.30
2018-12-17T19:24:54.451Z,98827.06
2018-12-17T19:27:23.918Z,98826.66
2018-12-17T19:29:53.405Z,98832.78
2018-12-17T19:32:22.814Z,98829.05
2018-12-17T19:34:52.139Z,98820.56
2018-12-17T19:37:21.424Z,98823.78
2018-12-17T19:39:50.809Z,98821.43
2018-12-17T19:42:22.184Z,98817.86
2018-12-17T19:44:51.537Z,98815.42
2018-12-17T19:47:20.937Z,98817.69
2018-12-17T19:49:50.304Z,98825.80
2018-12-17T19:52:19.658Z,98820.54
2018-12-17T19:54:55.553Z,98823.75
2018-12-17T19:57:24.943Z,98827.53
2018-12-17T19:59:54.320Z,98812.87
2018-12-17T20:02:23.732Z,98818.59
2018-12-17T20:04:53.119Z,98813.78
2018-12-17T20:07:22.489Z,98817.81
2018-12-17T20:09:51.868Z,98815.02
2018-12-17T20:12:21.258Z,98812.01
2018-12-17T20:14:50.599Z,98824.47
2018-12-17T20:17:20.083Z,98831.70
2018-12-17T20:19:49.442Z,98847.83
2018-12-17T20:22:18.985Z,98834.36
2018-12-17T20:24:48.311Z,98853.80
2018-12-17T20:27:17.677Z,98831.67
2018-12-17T20:29:50.372Z,98830.45
2018-12-17T20:32:18.341Z,98832.06
2018-12-17T20:34:47.640Z,98833.13
2018-12-17T20:37:17.040Z,98828.22
2018-12-17T20:39:46.242Z,98833.22
2018-12-17T20:42:15.705Z,98834.60
2018-12-17T20:44:45.064Z,98841.00
2018-12-17T20:47:14.369Z,98843.29
2018-12-17T20:49:43.706Z,98846.39
2018-12-17T20:52:13.332Z,98856.95
2018-12-17T20:54:42.820Z,98852.61
2018-12-17T20:57:12.050Z,98861.38
2018-12-17T20:59:41.451Z,98863.09
2018-12-17T21:02:10.747Z,98863.98
2018-12-17T21:04:40.151Z,98876.16
2018-12-17T21:07:09.567Z,98882.84
2018-12-17T21:09:38.969Z,98879.39
2018-12-17T21:12:08.259Z,98875.87
2018-12-17T21:14:38.604Z,98877.70
2018-12-17T21:17:07.904Z,98885.73
2018-12-17T21:19:37.437Z,98880.00
2018-12-17T21:22:10.642Z,98878.69
2018-12-17T21:24:39.940Z,98895.66
2018-12-17T21:27:09.210Z,98883.39
2018-12-17T21:29:38.546Z,98888.14
2018-12-17T21:32:07.876Z,98893.36
2018-12-17T21:34:37.012Z,98887.30
2018-12-17T21:37:06.366Z,98890.48
2018-12-17T21:39:35.697Z,98888.96
2018-12-17T21:42:05.151Z,98888.98
2018-12-17T21:44:34.199Z,98888.69
2018-12-17T21:47:03.652Z,98888.36
2018-12-17T21:49:33.000Z,98895.21
2018-12-17T21:52:02.397Z,98896.39
2018-12-17T21:54:31.643Z,98893.73
2018-12-17T21:57:01.100Z,98896.86
2018-12-17T21:59:30.325Z,98899.57
2018-12-17T22:01:59.676Z,98898.98
2018-12-17T22:04:29.108Z,98903.07
2018-12-17T22:06:58.531Z,98902.70
2018-12-17T22:09:27.930Z,98900.00
2018-12-17T22:11:57.322Z,98903.23
2018-12-17T22:14:26.588Z,98908.53
2018-12-17T22:16:56.027Z,98913.80
2018-12-17T22:19:25.410Z,98912.23
2018-12-17T22:21:54.715Z,98916.54
2018-12-17T22:24:24.458Z,98921.28
2018-12-17T22:26:53.826Z,98921.16
2018-12-17T22:29:23.333Z,98918.68
2018-12-17T22:31:52.736Z,98925.34
2018-12-17T22:34:22.233Z,98912.48
2018-12-17T22:36:51.695Z,98907.71
2018-12-17T22:39:21.054Z,98905.08
2018-12-17T22:41:50.517Z,98904.52
2018-12-17T22:44:19.839Z,98900.23
2018-12-17T22:46:49.183Z,98895.62
2018-12-17T22:49:18.452Z,98901.62
2018-12-17T22:51:47.771Z,98902.28
2018-12-17T22:54:17.165Z,98911.50
2018-12-17T23:00:18.835Z,98904.58
2018-12-17T23:02:48.280Z,98901.13
2018-12-17T23:05:17.725Z,98897.56
2018-12-17T23:07:47.073Z,98895.86
2018-12-17T23:13:33.526Z,98895.81
2018-12-17T23:16:19.705Z,98898.99
2018-12-17T23:18:47.551Z,98900.36
2018-12-17T23:21:19.056Z,98901.45
2018-12-17T23:23:48.509Z,98900.21
2018-12-17T23:26:18.028Z,98896.58
2018-12-17T23:28:47.572Z,98898.30
2018-12-17T23:31:16.893Z,98900.31
2018-12-17T23:33:45.984Z,98897.49
2018-12-17T23:36:15.352Z,98895.78
2018-12-17T23:38:44.400Z,98894.70
2018-12-17T23:41:13.817Z,98892.59
2018-12-17T23:43:43.138Z,98894.76
2018-12-17T23:46:12.556Z,98892.03
2018-12-17T23:48:41.984Z,98878.70
2018-12-17T23:51:11.464Z,98888.84
2018-12-17T23:53:40.824Z,98893.67
2018-12-17T23:56:10.182Z,98894.11
2018-12-17T23:58:39.570Z,98892.55
